Time;durP1;ratioP1;P1;durP2;ratioP2;P2;SDS_P1;SDS_P2;PMS_P1;PMS_P2;Temp;Humidity;BMP_temperature;BMP_pressure;BME280_temperature;BME280_humidity;BME280_pressure;Samples;Min_cycle;Max_cycle;Signal;HPM_P1;HPM_P2
2023/12/18 00:00:14;;;;;;;;;;;7.50;99.90;;;;;;5073992;28;19938;-35
2023/12/18 00:02:41;;;;;;;;;;;7.50;99.90;;;;;;5074179;28;19948;-35
2023/12/18 00:05:08;;;;;;;;;;;7.50;99.90;;;;;;5095862;28;19988;-35
2023/12/18 00:07:35;;;;;;;;;;;7.50;99.90;;;;;;5095797;28;19990;-33
2023/12/18 00:10:03;;;;;;;;;;;7.50;99.90;;;;;;5095860;28;19940;-34
2023/12/18 00:12:29;;;;;;;;;;;7.50;99.90;;;;;;5077884;28;20406;-34
2023/12/18 00:14:56;;;;;;;;;;;7.50;99.90;;;;;;5092260;28;19991;-35
2023/12/18 00:17:23;;;;;;;;;;;7.50;99.90;;;;;;5091066;28;19977;-34
2023/12/18 00:19:49;;;;;;;;;;;7.50;99.90;;;;;;5096153;28;21064;-34
2023/12/18 00:22:16;;;;;;;;;;;7.50;99.90;;;;;;5089430;28;20298;-35
2023/12/18 00:24:43;;;;;;;;;;;7.50;99.90;;;;;;5083601;28;19987;-36
2023/12/18 00:27:11;;;;;;;;;;;7.50;99.90;;;;;;5080549;28;19946;-35
2023/12/18 00:29:39;;;;;;;;;;;7.50;99.90;;;;;;5083252;28;19944;-34
2023/12/18 00:32:06;;;;;;;;;;;7.50;99.90;;;;;;5105610;28;19948;-34
2023/12/18 00:34:33;;;;;;;;;;;7.50;99.90;;;;;;5077155;28;19994;-35
2023/12/18 00:36:59;;;;;;;;;;;7.50;99.90;;;;;;5108749;28;19975;-34
2023/12/18 00:39:26;;;;;;;;;;;7.50;99.90;;;;;;5100842;28;20388;-35
2023/12/18 00:41:52;;;;;;;;;;;7.50;99.90;;;;;;5076826;28;19997;-35
2023/12/18 00:44:20;;;;;;;;;;;7.50;99.90;;;;;;5076851;28;19934;-35
2023/12/18 00:46:46;;;;;;;;;;;7.50;99.90;;;;;;5079686;28;19938;-36
2023/12/18 00:49:13;;;;;;;;;;;7.40;99.90;;;;;;5077288;28;19986;-35
2023/12/18 00:51:42;;;;;;;;;;;7.50;99.90;;;;;;5076069;28;19939;-34
2023/12/18 00:54:09;;;;;;;;;;;7.50;99.90;;;;;;5097463;28;19982;-35
2023/12/18 00:56:36;;;;;;;;;;;7.50;99.90;;;;;;5079988;28;20310;-35
2023/12/18 00:59:03;;;;;;;;;;;7.50;99.90;;;;;;5087911;28;20023;-35
2023/12/18 01:01:30;;;;;;;;;;;7.50;99.90;;;;;;5091171;28;19981;-35
2023/12/18 01:03:57;;;;;;;;;;;7.60;99.90;;;;;;5102776;28;19938;-35
2023/12/18 01:06:24;;;;;;;;;;;7.60;99.90;;;;;;5113841;28;19935;-35
2023/12/18 01:08:50;;;;;;;;;;;7.60;99.90;;;;;;5091175;28;19979;-35
2023/12/18 01:11:17;;;;;;;;;;;7.60;99.90;;;;;;5085140;28;19994;-37
2023/12/18 01:13:44;;;;;;;;;;;7.60;99.90;;;;;;5093531;28;20208;-35
2023/12/18 01:16:10;;;;;;;;;;;7.60;99.90;;;;;;5086171;28;20458;-36
2023/12/18 01:18:38;;;;;;;;;;;7.60;99.90;;;;;;5090016;28;20332;-36
2023/12/18 01:21:05;;;;;;;;;;;7.60;99.90;;;;;;5095494;28;20412;-35
2023/12/18 01:23:32;;;;;;;;;;;7.60;99.90;;;;;;5080161;28;19934;-35
2023/12/18 01:25:58;;;;;;;;;;;7.60;99.90;;;;;;5090621;28;19985;-36
2023/12/18 01:28:25;;;;;;;;;;;7.60;99.90;;;;;;5098177;28;19942;-35
2023/12/18 01:30:52;;;;;;;;;;;7.60;99.90;;;;;;5079356;28;19939;-36
2023/12/18 01:33:18;;;;;;;;;;;7.60;99.90;;;;;;5075950;28;19940;-34
2023/12/18 01:35:46;;;;;;;;;;;7.60;99.90;;;;;;5084817;28;19950;-35
2023/12/18 01:38:13;;;;;;;;;;;7.60;99.90;;;;;;5079352;28;19985;-35
2023/12/18 01:40:39;;;;;;;;;;;7.60;99.90;;;;;;5093976;28;20351;-34
2023/12/18 01:43:21;;;;;;;;;;;7.60;99.90;;;;;;5075418;28;19973;-35
2023/12/18 01:45:48;;;;;;;;;;;7.70;99.90;;;;;;5056092;28;19986;-33
2023/12/18 01:48:14;;;;;;;;;;;7.70;99.90;;;;;;5090639;28;19991;-35
2023/12/18 01:50:41;;;;;;;;;;;7.60;99.90;;;;;;5093806;28;19940;-34
2023/12/18 01:53:09;;;;;;;;;;;7.60;99.90;;;;;;5079351;28;19966;-34
2023/12/18 01:55:35;;;;;;;;;;;7.70;99.90;;;;;;5109211;28;20370;-33
2023/12/18 01:58:02;;;;;;;;;;;7.70;99.90;;;;;;5094274;28;19939;-35
2023/12/18 02:00:29;;;;;;;;;;;7.70;99.90;;;;;;5090987;28;19940;-34
2023/12/18 02:02:55;;;;;;;;;;;7.70;99.90;;;;;;5078529;28;19990;-34
2023/12/18 02:05:22;;;;;;;;;;;7.70;99.90;;;;;;5097844;28;20354;-36
2023/12/18 02:07:48;;;;;;;;;;;7.70;99.90;;;;;;5082000;28;19943;-34
2023/12/18 02:10:16;;;;;;;;;;;7.70;99.90;;;;;;5094161;28;19945;-36
2023/12/18 02:12:43;;;;;;;;;;;7.70;99.90;;;;;;5093461;28;19970;-34
2023/12/18 02:15:10;;;;;;;;;;;7.70;99.90;;;;;;5088886;28;19936;-35
2023/12/18 02:17:37;;;;;;;;;;;7.70;99.90;;;;;;5083172;28;20004;-34
2023/12/18 02:20:07;;;;;;;;;;;7.70;99.90;;;;;;5077528;28;19962;-35
2023/12/18 02:22:38;;;;;;;;;;;7.70;99.90;;;;;;5077801;28;20397;-34
2023/12/18 02:25:05;;;;;;;;;;;7.80;99.90;;;;;;5083178;28;19985;-35
2023/12/18 02:27:31;;;;;;;;;;;7.80;99.90;;;;;;5093583;28;19939;-35
2023/12/18 02:29:58;;;;;;;;;;;7.70;99.90;;;;;;5083215;28;19959;-34
2023/12/18 02:32:25;;;;;;;;;;;7.80;99.90;;;;;;5089659;28;19948;-34
2023/12/18 02:34:51;;;;;;;;;;;7.80;99.90;;;;;;5093352;28;19983;-34
2023/12/18 02:37:18;;;;;;;;;;;7.80;99.90;;;;;;5113363;28;20005;-36
2023/12/18 02:39:46;;;;;;;;;;;7.80;99.90;;;;;;5077293;28;20025;-34
2023/12/18 02:42:13;;;;;;;;;;;7.80;99.90;;;;;;5077811;28;19936;-33
2023/12/18 02:44:40;;;;;;;;;;;7.80;99.90;;;;;;5081471;28;19986;-34
2023/12/18 02:47:06;;;;;;;;;;;7.80;99.90;;;;;;5112540;28;19940;-35
2023/12/18 02:49:33;;;;;;;;;;;7.80;99.90;;;;;;5078198;28;19924;-36
2023/12/18 02:51:59;;;;;;;;;;;7.80;99.90;;;;;;5078386;28;20008;-33
2023/12/18 02:54:26;;;;;;;;;;;7.80;99.90;;;;;;5095226;28;20086;-34
2023/12/18 02:56:54;;;;;;;;;;;7.80;99.90;;;;;;5083811;28;20181;-35
2023/12/18 02:59:21;;;;;;;;;;;7.80;99.90;;;;;;5112170;28;19938;-35
2023/12/18 03:01:47;;;;;;;;;;;7.80;99.90;;;;;;5087912;28;19941;-34
2023/12/18 03:04:18;;;;;;;;;;;7.80;99.90;;;;;;5092728;28;20009;-35
2023/12/18 03:06:45;;;;;;;;;;;7.80;99.90;;;;;;5101555;28;19950;-34
2023/12/18 03:09:11;;;;;;;;;;;7.80;99.90;;;;;;5084358;28;19938;-35
2023/12/18 03:11:39;;;;;;;;;;;7.80;99.90;;;;;;5088237;28;19938;-35
2023/12/18 03:14:07;;;;;;;;;;;7.80;99.90;;;;;;5094549;28;20008;-35
2023/12/18 03:16:34;;;;;;;;;;;7.80;99.90;;;;;;5091342;28;20003;-34
2023/12/18 03:19:00;;;;;;;;;;;7.80;99.90;;;;;;5094895;28;20386;-34
2023/12/18 03:21:27;;;;;;;;;;;7.80;99.90;;;;;;5112257;28;20025;-34
2023/12/18 03:23:54;;;;;;;;;;;7.80;99.90;;;;;;5077405;28;19991;-36
2023/12/18 03:26:20;;;;;;;;;;;7.90;99.90;;;;;;5111491;28;19940;-35
2023/12/18 03:28:47;;;;;;;;;;;7.90;99.90;;;;;;5102785;28;20369;-34
2023/12/18 03:31:15;;;;;;;;;;;7.90;99.90;;;;;;5088051;28;19986;-36
2023/12/18 03:33:42;;;;;;;;;;;7.90;99.90;;;;;;5093903;28;20313;-34
2023/12/18 03:36:08;;;;;;;;;;;7.90;99.90;;;;;;5108501;28;20344;-34
2023/12/18 03:38:35;;;;;;;;;;;7.90;99.90;;;;;;5077648;28;19937;-33
2023/12/18 03:41:02;;;;;;;;;;;7.90;99.90;;;;;;5078236;28;19940;-34
2023/12/18 03:43:28;;;;;;;;;;;7.80;99.90;;;;;;5077944;28;19944;-34
2023/12/18 03:45:55;;;;;;;;;;;7.90;99.90;;;;;;5078015;28;19942;-35
2023/12/18 03:48:23;;;;;;;;;;;7.90;99.90;;;;;;5077945;28;19989;-35
2023/12/18 03:50:50;;;;;;;;;;;7.90;99.90;;;;;;5077851;28;19947;-36
2023/12/18 03:53:16;;;;;;;;;;;7.90;99.90;;;;;;5077665;28;19997;-34
2023/12/18 03:55:43;;;;;;;;;;;7.90;99.90;;;;;;5095611;28;19954;-35
2023/12/18 03:58:09;;;;;;;;;;;7.90;99.90;;;;;;5077965;28;19992;-34
2023/12/18 04:00:36;;;;;;;;;;;7.90;99.90;;;;;;5078015;28;20276;-35
2023/12/18 04:03:03;;;;;;;;;;;7.90;99.90;;;;;;5077958;28;19938;-36
2023/12/18 04:05:31;;;;;;;;;;;7.90;99.90;;;;;;5077836;28;20442;-35
2023/12/18 04:07:58;;;;;;;;;;;7.80;99.90;;;;;;5077672;28;20410;-35
2023/12/18 04:10:24;;;;;;;;;;;7.90;99.90;;;;;;5077751;28;19941;-33
2023/12/18 04:12:51;;;;;;;;;;;7.90;99.90;;;;;;5077364;28;19999;-34
2023/12/18 04:15:18;;;;;;;;;;;7.90;99.90;;;;;;5077894;28;20003;-36
2023/12/18 04:17:44;;;;;;;;;;;7.90;99.90;;;;;;5090466;28;20059;-35
2023/12/18 04:20:11;;;;;;;;;;;7.90;99.90;;;;;;5086485;28;20428;-30
2023/12/18 04:22:39;;;;;;;;;;;7.90;99.90;;;;;;5080577;28;19941;-35
2023/12/18 04:25:07;;;;;;;;;;;7.90;99.90;;;;;;5087327;28;19939;-34
2023/12/18 04:27:33;;;;;;;;;;;7.90;99.90;;;;;;5105854;28;19940;-34
2023/12/18 04:30:00;;;;;;;;;;;7.90;99.90;;;;;;5089885;28;19938;-33
2023/12/18 04:32:26;;;;;;;;;;;7.90;99.90;;;;;;5077607;28;19982;-34
2023/12/18 04:34:53;;;;;;;;;;;7.90;99.90;;;;;;5089091;28;20399;-37
2023/12/18 04:37:20;;;;;;;;;;;7.90;99.90;;;;;;5077607;28;19952;-34
2023/12/18 04:39:48;;;;;;;;;;;7.90;99.90;;;;;;5077311;28;19940;-34
2023/12/18 04:42:15;;;;;;;;;;;7.90;99.90;;;;;;5076668;28;19989;-33
2023/12/18 04:44:42;;;;;;;;;;;7.90;99.90;;;;;;5100052;28;20394;-35
2023/12/18 04:47:09;;;;;;;;;;;7.90;99.90;;;;;;5092536;28;20087;-36
2023/12/18 04:49:35;;;;;;;;;;;8.00;99.90;;;;;;5084180;28;19946;-35
2023/12/18 04:52:02;;;;;;;;;;;8.00;99.90;;;;;;5074020;28;19974;-34
2023/12/18 04:54:28;;;;;;;;;;;8.00;99.90;;;;;;5079543;28;19994;-37
2023/12/18 04:56:56;;;;;;;;;;;8.00;99.90;;;;;;5091085;28;20482;-34
2023/12/18 04:59:23;;;;;;;;;;;7.90;99.90;;;;;;5094938;28;20005;-35
2023/12/18 05:01:53;;;;;;;;;;;8.00;99.90;;;;;;5092697;28;20430;-36
2023/12/18 05:04:20;;;;;;;;;;;7.90;99.90;;;;;;5108900;28;19987;-37
2023/12/18 05:06:46;;;;;;;;;;;8.00;99.90;;;;;;5079874;28;19969;-34
2023/12/18 05:09:14;;;;;;;;;;;8.00;99.90;;;;;;5092684;28;20294;-36
2023/12/18 05:11:41;;;;;;;;;;;8.00;99.90;;;;;;5094538;28;19938;-35
2023/12/18 05:14:09;;;;;;;;;;;8.00;99.90;;;;;;5074991;28;19988;-35
2023/12/18 05:16:35;;;;;;;;;;;8.00;99.90;;;;;;5094035;28;19952;-35
2023/12/18 05:19:02;;;;;;;;;;;8.00;99.90;;;;;;5079200;28;19924;-36
2023/12/18 05:21:29;;;;;;;;;;;8.00;99.90;;;;;;5095701;28;20377;-34
2023/12/18 05:23:56;;;;;;;;;;;8.00;99.90;;;;;;5092049;28;19968;-37
2023/12/18 05:26:22;;;;;;;;;;;8.00;99.90;;;;;;5086108;28;19994;-34
2023/12/18 05:28:49;;;;;;;;;;;8.00;99.90;;;;;;5079313;28;20463;-35
2023/12/18 05:31:20;;;;;;;;;;;8.00;99.90;;;;;;5110159;28;19938;-34
2023/12/18 05:33:46;;;;;;;;;;;8.00;99.90;;;;;;5078569;28;19994;-34
2023/12/18 05:36:14;;;;;;;;;;;8.00;99.90;;;;;;5103065;28;19968;-35
2023/12/18 05:38:40;;;;;;;;;;;8.00;99.90;;;;;;5079241;28;19987;-34
2023/12/18 05:41:07;;;;;;;;;;;8.00;99.90;;;;;;5075853;28;19990;-35
2023/12/18 05:43:34;;;;;;;;;;;8.00;99.90;;;;;;5093968;28;19988;-35
2023/12/18 05:46:00;;;;;;;;;;;8.00;99.90;;;;;;5075459;28;20005;-35
2023/12/18 05:48:28;;;;;;;;;;;8.00;99.90;;;;;;5076006;28;19997;-35
2023/12/18 05:50:55;;;;;;;;;;;8.00;99.90;;;;;;5075642;28;19939;-35
2023/12/18 05:53:22;;;;;;;;;;;8.00;99.90;;;;;;5075400;28;19995;-33
2023/12/18 05:55:49;;;;;;;;;;;8.10;99.90;;;;;;5076119;28;19950;-35
2023/12/18 05:58:15;;;;;;;;;;;8.00;99.90;;;;;;5074938;28;20447;-34
2023/12/18 06:00:42;;;;;;;;;;;8.00;99.90;;;;;;5079686;28;19934;-34
2023/12/18 06:03:08;;;;;;;;;;;8.00;99.90;;;;;;5098818;28;19992;-36
2023/12/18 06:05:36;;;;;;;;;;;8.00;99.90;;;;;;5085559;28;20305;-35
2023/12/18 06:08:03;;;;;;;;;;;8.00;99.90;;;;;;5075985;28;20424;-36
2023/12/18 06:10:30;;;;;;;;;;;8.00;99.90;;;;;;5092807;28;20013;-35
2023/12/18 06:12:57;;;;;;;;;;;8.00;99.90;;;;;;5088233;28;19997;-37
2023/12/18 06:15:23;;;;;;;;;;;8.00;99.90;;;;;;5085725;28;19990;-34
2023/12/18 06:17:50;;;;;;;;;;;8.10;99.90;;;;;;5078590;28;19954;-34
2023/12/18 06:20:16;;;;;;;;;;;8.00;99.90;;;;;;5078013;28;19954;-35
2023/12/18 06:22:45;;;;;;;;;;;8.00;99.90;;;;;;5088006;28;19938;-34
2023/12/18 06:25:11;;;;;;;;;;;8.00;99.90;;;;;;5096778;28;19981;-34
2023/12/18 06:27:38;;;;;;;;;;;8.00;99.90;;;;;;5103509;28;19938;-35
2023/12/18 06:30:05;;;;;;;;;;;8.00;99.90;;;;;;5102365;28;20348;-35
2023/12/18 06:32:32;;;;;;;;;;;8.00;99.90;;;;;;5075123;28;19988;-35
2023/12/18 06:34:59;;;;;;;;;;;8.00;99.90;;;;;;5101919;28;20030;-34
2023/12/18 06:37:25;;;;;;;;;;;8.00;99.90;;;;;;5079752;28;20011;-34
2023/12/18 06:39:53;;;;;;;;;;;8.00;99.90;;;;;;5075274;28;20428;-34
2023/12/18 06:42:20;;;;;;;;;;;8.10;99.90;;;;;;5077716;28;19943;-34
2023/12/18 06:44:46;;;;;;;;;;;8.10;99.90;;;;;;5101404;28;20355;-34
2023/12/18 06:47:13;;;;;;;;;;;8.10;99.90;;;;;;5094954;28;19939;-34
2023/12/18 06:49:40;;;;;;;;;;;8.10;99.90;;;;;;5079891;28;19973;-34
2023/12/18 06:52:06;;;;;;;;;;;8.10;99.90;;;;;;5084404;28;20395;-33
2023/12/18 06:54:34;;;;;;;;;;;8.10;99.90;;;;;;5108424;28;20312;-35
2023/12/18 06:57:02;;;;;;;;;;;8.10;99.90;;;;;;5108128;28;19958;-34
2023/12/18 06:59:29;;;;;;;;;;;8.10;99.90;;;;;;5106852;28;19942;-36
2023/12/18 07:01:55;;;;;;;;;;;8.10;99.90;;;;;;5086616;28;19991;-34
2023/12/18 07:04:22;;;;;;;;;;;8.10;99.90;;;;;;5094611;28;19938;-36
2023/12/18 07:06:49;;;;;;;;;;;8.10;99.90;;;;;;5081520;28;19979;-37
2023/12/18 07:09:15;;;;;;;;;;;8.10;99.90;;;;;;5074227;28;19944;-35
2023/12/18 07:11:42;;;;;;;;;;;8.10;99.90;;;;;;5074146;28;19943;-34
2023/12/18 07:14:10;;;;;;;;;;;8.10;99.90;;;;;;5065080;28;19992;-34
2023/12/18 07:16:36;;;;;;;;;;;8.10;99.90;;;;;;5054072;28;20337;-33
2023/12/18 07:19:03;;;;;;;;;;;8.10;99.90;;;;;;5052976;28;19949;-34
2023/12/18 07:21:30;;;;;;;;;;;8.10;99.90;;;;;;5067120;28;20014;-35
2023/12/18 07:23:56;;;;;;;;;;;8.10;99.90;;;;;;5074832;28;19984;-35
2023/12/18 07:26:23;;;;;;;;;;;8.20;99.90;;;;;;5092426;28;19984;-35
2023/12/18 07:28:53;;;;;;;;;;;8.10;99.90;;;;;;5074620;28;19939;-33
2023/12/18 07:31:21;;;;;;;;;;;8.20;99.90;;;;;;5092245;28;19997;-35
2023/12/18 07:33:47;;;;;;;;;;;8.20;99.90;;;;;;5067969;28;19990;-36
2023/12/18 07:36:14;;;;;;;;;;;8.20;99.90;;;;;;5071469;28;19981;-35
2023/12/18 07:38:40;;;;;;;;;;;8.10;99.90;;;;;;5068213;28;19924;-34
2023/12/18 07:41:07;;;;;;;;;;;8.20;99.90;;;;;;5091101;28;19946;-34
2023/12/18 07:43:34;;;;;;;;;;;8.20;99.90;;;;;;5071829;28;20464;-34
2023/12/18 07:46:00;;;;;;;;;;;8.20;99.90;;;;;;5054471;28;19944;-35
2023/12/18 07:48:28;;;;;;;;;;;8.20;99.90;;;;;;5065708;28;19936;-34
2023/12/18 07:50:56;;;;;;;;;;;8.20;99.90;;;;;;5092126;28;19935;-34
2023/12/18 07:53:22;;;;;;;;;;;8.10;99.90;;;;;;5092583;28;20288;-34
2023/12/18 07:55:49;;;;;;;;;;;8.10;99.90;;;;;;5074053;28;19997;-36
2023/12/18 07:58:15;;;;;;;;;;;8.10;99.90;;;;;;5074229;28;19959;-37
2023/12/18 08:00:42;;;;;;;;;;;8.10;99.90;;;;;;5074532;28;19944;-36
2023/12/18 08:03:09;;;;;;;;;;;8.10;99.90;;;;;;5074397;28;19945;-35
2023/12/18 08:05:37;;;;;;;;;;;8.10;99.90;;;;;;5074362;28;19943;-34
2023/12/18 08:08:03;;;;;;;;;;;8.10;99.90;;;;;;5074282;28;19931;-34
2023/12/18 08:10:30;;;;;;;;;;;8.10;99.90;;;;;;5091911;28;19989;-34
2023/12/18 08:12:57;;;;;;;;;;;8.10;99.90;;;;;;5112418;28;20091;-34
2023/12/18 08:15:23;;;;;;;;;;;8.10;99.90;;;;;;5094444;28;19993;-34
2023/12/18 08:17:50;;;;;;;;;;;8.10;99.90;;;;;;5094133;28;19954;-35
2023/12/18 08:20:17;;;;;;;;;;;8.10;99.90;;;;;;5078227;28;19958;-35
2023/12/18 08:22:45;;;;;;;;;;;8.10;99.90;;;;;;5074256;28;19993;-35
2023/12/18 08:25:11;;;;;;;;;;;8.10;99.90;;;;;;5095696;28;19938;-34
2023/12/18 08:27:38;;;;;;;;;;;8.10;99.90;;;;;;5077771;28;20356;-37
2023/12/18 08:30:05;;;;;;;;;;;8.10;99.90;;;;;;5077858;28;20037;-35
2023/12/18 08:32:32;;;;;;;;;;;8.10;99.90;;;;;;5077865;28;19989;-35
2023/12/18 08:35:00;;;;;;;;;;;8.10;99.90;;;;;;5104891;28;19936;-34
2023/12/18 08:37:27;;;;;;;;;;;8.20;99.90;;;;;;5097505;28;20329;-36
2023/12/18 08:39:55;;;;;;;;;;;8.10;99.90;;;;;;5114236;28;19985;-37
2023/12/18 08:42:22;;;;;;;;;;;8.10;99.90;;;;;;5086100;28;19947;-35
2023/12/18 08:44:49;;;;;;;;;;;8.10;99.90;;;;;;5085265;28;19944;-34
2023/12/18 08:47:16;;;;;;;;;;;8.10;99.90;;;;;;5097630;28;19938;-34
2023/12/18 08:49:42;;;;;;;;;;;8.10;99.90;;;;;;5097474;28;19924;-34
2023/12/18 08:52:09;;;;;;;;;;;8.10;99.90;;;;;;5097873;28;19993;-35
2023/12/18 08:54:35;;;;;;;;;;;8.20;99.90;;;;;;5109323;28;20307;-35
2023/12/18 08:57:04;;;;;;;;;;;8.20;99.90;;;;;;5077105;28;19943;-33
2023/12/18 08:59:30;;;;;;;;;;;8.20;99.90;;;;;;5077473;28;19997;-35
2023/12/18 09:01:57;;;;;;;;;;;8.20;99.90;;;;;;5094798;28;19943;-34
2023/12/18 09:04:24;;;;;;;;;;;8.20;99.90;;;;;;5080956;28;19982;-36
2023/12/18 09:06:50;;;;;;;;;;;8.20;99.90;;;;;;5096886;28;20161;-35
2023/12/18 09:09:17;;;;;;;;;;;8.20;99.90;;;;;;5097474;28;19992;-35
2023/12/18 09:11:43;;;;;;;;;;;8.20;99.90;;;;;;5097246;28;19939;-34
2023/12/18 09:14:11;;;;;;;;;;;8.20;99.90;;;;;;5095056;28;19942;-36
2023/12/18 09:16:39;;;;;;;;;;;8.20;99.90;;;;;;5094501;28;19945;-35
2023/12/18 09:19:06;;;;;;;;;;;8.30;99.90;;;;;;5094402;28;20025;-34
2023/12/18 09:21:33;;;;;;;;;;;8.20;99.90;;;;;;5076414;28;20016;-35
2023/12/18 09:23:59;;;;;;;;;;;8.20;99.90;;;;;;5076507;28;19946;-34
2023/12/18 09:26:26;;;;;;;;;;;8.20;99.90;;;;;;5096376;28;19940;-35
2023/12/18 09:28:52;;;;;;;;;;;8.20;99.90;;;;;;5096712;28;19936;-34
2023/12/18 09:31:21;;;;;;;;;;;8.20;99.90;;;;;;5114751;28;19944;-35
2023/12/18 09:33:47;;;;;;;;;;;8.30;99.90;;;;;;5096683;28;20355;-34
2023/12/18 09:36:14;;;;;;;;;;;8.30;99.90;;;;;;5096182;28;20023;-34
2023/12/18 09:38:41;;;;;;;;;;;8.30;99.90;;;;;;5075985;28;19970;-35
2023/12/18 09:41:08;;;;;;;;;;;8.30;99.90;;;;;;5075045;28;19979;-36
2023/12/18 09:43:35;;;;;;;;;;;8.30;99.90;;;;;;5084341;28;19940;-34
2023/12/18 09:46:02;;;;;;;;;;;8.40;99.90;;;;;;5094185;28;19992;-35
2023/12/18 09:48:30;;;;;;;;;;;8.40;99.90;;;;;;5076132;28;19942;-35
2023/12/18 09:50:56;;;;;;;;;;;8.40;99.90;;;;;;5075753;28;19938;-35
2023/12/18 09:53:23;;;;;;;;;;;8.40;99.90;;;;;;5077268;28;19935;-33
2023/12/18 09:55:51;;;;;;;;;;;8.40;99.90;;;;;;5076320;28;19987;-33
2023/12/18 09:58:18;;;;;;;;;;;8.50;99.90;;;;;;5093766;28;20436;-35
2023/12/18 10:00:46;;;;;;;;;;;8.40;99.90;;;;;;5075991;28;19939;-35
2023/12/18 10:03:15;;;;;;;;;;;8.50;99.90;;;;;;5080838;28;19941;-35
2023/12/18 10:05:43;;;;;;;;;;;8.50;99.90;;;;;;5114036;28;19951;-34
2023/12/18 10:08:10;;;;;;;;;;;8.40;99.90;;;;;;5096233;28;19943;-33
2023/12/18 10:10:37;;;;;;;;;;;8.40;99.90;;;;;;5096073;28;20389;-35
2023/12/18 10:13:06;;;;;;;;;;;8.50;99.90;;;;;;5091654;28;19987;-35
2023/12/18 10:15:34;;;;;;;;;;;8.50;99.90;;;;;;5075558;28;19946;-33
2023/12/18 10:18:01;;;;;;;;;;;8.50;99.90;;;;;;5093126;28;20379;-35
2023/12/18 10:20:28;;;;;;;;;;;8.60;99.90;;;;;;5075153;28;20003;-34
2023/12/18 10:22:56;;;;;;;;;;;8.60;99.90;;;;;;5075106;28;20286;-35
2023/12/18 10:25:23;;;;;;;;;;;8.60;99.90;;;;;;5075323;28;19938;-36
2023/12/18 10:27:54;;;;;;;;;;;8.60;99.90;;;;;;5075535;28;19985;-34
2023/12/18 10:30:25;;;;;;;;;;;8.60;99.90;;;;;;5092112;28;20026;-35
2023/12/18 10:32:52;;;;;;;;;;;8.60;99.90;;;;;;5113726;28;19934;-34
2023/12/18 10:35:18;;;;;;;;;;;8.60;99.90;;;;;;5095748;28;19994;-34
2023/12/18 10:37:46;;;;;;;;;;;8.60;99.90;;;;;;5086812;28;19981;-34
2023/12/18 10:40:14;;;;;;;;;;;8.60;99.90;;;;;;5093080;28;19948;-35
2023/12/18 10:42:41;;;;;;;;;;;8.60;99.90;;;;;;5060798;28;19945;-34
2023/12/18 10:45:08;;;;;;;;;;;8.60;99.90;;;;;;5055050;28;19948;-36
2023/12/18 10:47:35;;;;;;;;;;;8.60;99.90;;;;;;5064685;28;19940;-33
2023/12/18 10:50:02;;;;;;;;;;;8.70;99.90;;;;;;5095539;28;19940;-35
2023/12/18 10:52:29;;;;;;;;;;;8.70;99.90;;;;;;5113221;28;19940;-35
2023/12/18 10:54:56;;;;;;;;;;;8.70;99.90;;;;;;5113112;28;19924;-35
2023/12/18 10:57:24;;;;;;;;;;;8.70;99.90;;;;;;5110755;28;19944;-34
2023/12/18 10:59:51;;;;;;;;;;;8.70;99.90;;;;;;5092547;28;19961;-36
2023/12/18 11:02:18;;;;;;;;;;;8.80;99.90;;;;;;5092916;28;20041;-34
2023/12/18 11:04:44;;;;;;;;;;;8.70;99.90;;;;;;5092628;28;19987;-35
2023/12/18 11:07:13;;;;;;;;;;;8.80;99.90;;;;;;5083669;28;20400;-34
2023/12/18 11:09:40;;;;;;;;;;;8.80;99.90;;;;;;5112752;28;19942;-35
2023/12/18 11:12:06;;;;;;;;;;;8.80;99.90;;;;;;5112858;28;20389;-35
2023/12/18 11:14:36;;;;;;;;;;;8.80;99.90;;;;;;5094824;28;19995;-34
2023/12/18 11:17:05;;;;;;;;;;;8.80;99.90;;;;;;5105628;28;20356;-37
2023/12/18 11:19:33;;;;;;;;;;;8.80;99.90;;;;;;5085956;28;19954;-34
2023/12/18 11:22:04;;;;;;;;;;;8.80;99.90;;;;;;5112290;28;20040;-33
2023/12/18 11:24:35;;;;;;;;;;;8.90;99.90;;;;;;5074664;28;20422;-35
2023/12/18 11:27:02;;;;;;;;;;;8.90;99.90;;;;;;5092404;28;19945;-35
2023/12/18 11:29:32;;;;;;;;;;;8.90;99.90;;;;;;5074430;28;19941;-34
2023/12/18 11:32:00;;;;;;;;;;;8.90;99.90;;;;;;5074875;28;19940;-34
2023/12/18 11:34:27;;;;;;;;;;;9.00;99.90;;;;;;5093505;28;20325;-34
2023/12/18 11:36:54;;;;;;;;;;;9.00;99.90;;;;;;5094785;28;19998;-34
2023/12/18 11:39:21;;;;;;;;;;;9.00;99.90;;;;;;5112559;28;19966;-35
2023/12/18 11:41:48;;;;;;;;;;;9.00;99.90;;;;;;5105524;28;19938;-35
2023/12/18 11:44:14;;;;;;;;;;;9.00;99.90;;;;;;5091725;28;19940;-34
2023/12/18 11:46:41;;;;;;;;;;;9.10;99.90;;;;;;5112887;28;20365;-34
2023/12/18 11:49:09;;;;;;;;;;;9.10;99.90;;;;;;5094983;28;19941;-35
2023/12/18 11:51:36;;;;;;;;;;;9.10;99.90;;;;;;5094752;28;19938;-34
2023/12/18 11:54:03;;;;;;;;;;;9.10;99.90;;;;;;5079792;28;19939;-37
2023/12/18 11:56:31;;;;;;;;;;;9.10;99.90;;;;;;5074356;28;19938;-34
2023/12/18 11:58:58;;;;;;;;;;;9.20;99.90;;;;;;5094799;28;19959;-34
2023/12/18 12:01:25;;;;;;;;;;;9.10;99.90;;;;;;5078377;28;19985;-34
2023/12/18 12:03:52;;;;;;;;;;;9.10;99.90;;;;;;5090717;28;19939;-34
2023/12/18 12:06:20;;;;;;;;;;;9.10;99.90;;;;;;5098494;28;19994;-34
2023/12/18 12:08:47;;;;;;;;;;;9.10;99.90;;;;;;5098630;28;19973;-35
2023/12/18 12:11:14;;;;;;;;;;;9.10;99.90;;;;;;5098199;28;19942;-35
2023/12/18 12:13:40;;;;;;;;;;;9.10;99.90;;;;;;5104563;28;20396;-36
2023/12/18 12:16:07;;;;;;;;;;;9.10;99.90;;;;;;5093706;28;19990;-34
2023/12/18 12:18:34;;;;;;;;;;;9.10;99.90;;;;;;5113489;28;19953;-35
2023/12/18 12:21:01;;;;;;;;;;;9.10;99.90;;;;;;5081810;28;19964;-35
2023/12/18 12:23:29;;;;;;;;;;;9.10;99.90;;;;;;5077853;28;19995;-35
2023/12/18 12:25:56;;;;;;;;;;;9.00;99.90;;;;;;5077281;28;20292;-35
2023/12/18 12:28:23;;;;;;;;;;;9.00;99.90;;;;;;5077804;28;20039;-34
2023/12/18 12:30:49;;;;;;;;;;;9.00;99.90;;;;;;5095338;28;19977;-34
2023/12/18 12:33:17;;;;;;;;;;;9.00;99.90;;;;;;5116170;28;19935;-34
2023/12/18 12:35:44;;;;;;;;;;;9.00;99.90;;;;;;5098000;28;20363;-36
2023/12/18 12:38:10;;;;;;;;;;;9.00;99.90;;;;;;5097918;28;19941;-35
2023/12/18 12:40:39;;;;;;;;;;;8.90;99.90;;;;;;5082410;28;19938;-35
2023/12/18 12:43:05;;;;;;;;;;;8.90;99.90;;;;;;5059720;28;19939;-34
2023/12/18 12:45:32;;;;;;;;;;;9.00;99.90;;;;;;5057480;28;19947;-34
2023/12/18 12:47:59;;;;;;;;;;;8.90;99.90;;;;;;5057312;28;19941;-35
2023/12/18 12:50:31;;;;;;;;;;;8.90;99.90;;;;;;5081718;28;19938;-34
2023/12/18 12:52:58;;;;;;;;;;;8.90;99.90;;;;;;5085297;28;19975;-34
2023/12/18 12:55:24;;;;;;;;;;;8.90;99.90;;;;;;5081630;28;19944;-35
2023/12/18 12:57:53;;;;;;;;;;;8.90;99.90;;;;;;5097477;28;19995;-34
2023/12/18 13:00:19;;;;;;;;;;;8.90;99.90;;;;;;5115224;28;20431;-35
2023/12/18 13:02:46;;;;;;;;;;;8.90;99.90;;;;;;5097357;28;19942;-34
2023/12/18 13:05:13;;;;;;;;;;;8.90;99.90;;;;;;5094174;28;19946;-34
2023/12/18 13:07:39;;;;;;;;;;;8.90;99.90;;;;;;5076638;28;19989;-36
2023/12/18 13:10:07;;;;;;;;;;;8.90;99.90;;;;;;5076297;28;20001;-35
2023/12/18 13:12:33;;;;;;;;;;;8.90;99.90;;;;;;5076915;28;20005;-33
2023/12/18 13:15:05;;;;;;;;;;;8.90;99.90;;;;;;5094807;28;20052;-33
2023/12/18 13:17:31;;;;;;;;;;;8.90;99.90;;;;;;5079412;28;19990;-33
2023/12/18 13:19:58;;;;;;;;;;;8.90;99.90;;;;;;5096503;28;20014;-34
2023/12/18 13:22:25;;;;;;;;;;;8.90;99.90;;;;;;5115122;28;20002;-34
2023/12/18 13:24:51;;;;;;;;;;;8.90;99.90;;;;;;5114620;28;19942;-34
2023/12/18 13:27:18;;;;;;;;;;;8.90;99.90;;;;;;5096814;28;19984;-34
2023/12/18 13:29:45;;;;;;;;;;;9.00;99.90;;;;;;5095175;28;19945;-33
2023/12/18 13:32:13;;;;;;;;;;;8.90;99.90;;;;;;5115010;28;19981;-37
2023/12/18 13:34:40;;;;;;;;;;;8.90;99.90;;;;;;5096650;28;19944;-34
2023/12/18 13:37:07;;;;;;;;;;;8.90;99.90;;;;;;5114693;28;19934;-35
2023/12/18 13:39:36;;;;;;;;;;;8.90;99.90;;;;;;5087582;28;20422;-34
2023/12/18 13:42:02;;;;;;;;;;;8.90;99.90;;;;;;5087623;28;19983;-34
2023/12/18 13:44:29;;;;;;;;;;;8.90;99.90;;;;;;5076480;28;20272;-34
2023/12/18 13:46:56;;;;;;;;;;;8.90;99.90;;;;;;5080192;28;20421;-35
2023/12/18 13:49:24;;;;;;;;;;;8.90;99.90;;;;;;5075918;28;19974;-35
2023/12/18 13:51:50;;;;;;;;;;;8.90;99.90;;;;;;5076160;28;20006;-35
2023/12/18 13:54:17;;;;;;;;;;;8.90;99.90;;;;;;5075831;28;19940;-34
2023/12/18 13:56:44;;;;;;;;;;;9.00;99.90;;;;;;5075983;28;19940;-34
2023/12/18 13:59:11;;;;;;;;;;;8.90;99.90;;;;;;5076222;28;19962;-34
2023/12/18 14:01:38;;;;;;;;;;;8.90;99.90;;;;;;5076010;28;19938;-35
2023/12/18 14:04:05;;;;;;;;;;;9.00;99.90;;;;;;5075689;28;19941;-34
2023/12/18 14:06:33;;;;;;;;;;;8.90;99.90;;;;;;5093754;28;19944;-34
2023/12/18 14:09:00;;;;;;;;;;;8.90;99.90;;;;;;5089955;28;19942;-37
2023/12/18 14:11:26;;;;;;;;;;;8.90;99.90;;;;;;5075793;28;20038;-33
2023/12/18 14:13:53;;;;;;;;;;;8.90;99.90;;;;;;5056551;28;20430;-33
2023/12/18 14:16:20;;;;;;;;;;;8.90;99.90;;;;;;5055759;28;19964;-33
2023/12/18 14:18:49;;;;;;;;;;;8.90;99.90;;;;;;5074442;28;20002;-36
2023/12/18 14:21:16;;;;;;;;;;;8.90;99.90;;;;;;5095115;28;20435;-34
2023/12/18 14:23:44;;;;;;;;;;;8.90;99.90;;;;;;5113346;28;19932;-35
2023/12/18 14:26:10;;;;;;;;;;;9.00;99.90;;;;;;5096098;28;19940;-34
2023/12/18 14:28:37;;;;;;;;;;;9.00;99.90;;;;;;5101909;28;19995;-34